sensor_id;sensor_type;location;lat;lon;timestamp;P1;durP1;ratioP1;P2;durP2;ratioP2
2338;SDS011;1180;51.438;6.978;2023-10-19T00:02:09;4.07;;;3.70;;
2338;SDS011;1180;51.438;6.978;2023-10-19T00:04:40;8.27;;;4.63;;
2338;SDS011;1180;51.438;6.978;2023-10-19T00:07:06;3.70;;;3.30;;
2338;SDS011;1180;51.438;6.978;2023-10-19T00:09:33;4.10;;;3.80;;
2338;SDS011;1180;51.438;6.978;2023-10-19T00:12:04;4.70;;;3.53;;
2338;SDS011;1180;51.438;6.978;2023-10-19T00:14:34;3.90;;;3.50;;
2338;SDS011;1180;51.438;6.978;2023-10-19T00:17:00;4.50;;;4.00;;
2338;SDS011;1180;51.438;6.978;2023-10-19T00:19:31;4.37;;;3.23;;
2338;SDS011;1180;51.438;6.978;2023-10-19T00:22:04;4.27;;;3.83;;
2338;SDS011;1180;51.438;6.978;2023-10-19T00:24:34;3.80;;;3.50;;
2338;SDS011;1180;51.438;6.978;2023-10-19T00:27:00;4.03;;;3.67;;
2338;SDS011;1180;51.438;6.978;2023-10-19T00:29:46;4.73;;;4.20;;
2338;SDS011;1180;51.438;6.978;2023-10-19T00:32:20;5.27;;;3.67;;
2338;SDS011;1180;51.438;6.978;2023-10-19T00:34:50;4.50;;;4.17;;
2338;SDS011;1180;51.438;6.978;2023-10-19T00:37:17;4.17;;;3.83;;
2338;SDS011;1180;51.438;6.978;2023-10-19T00:39:51;5.10;;;4.60;;
2338;SDS011;1180;51.438;6.978;2023-10-19T00:42:20;4.53;;;4.07;;
2338;SDS011;1180;51.438;6.978;2023-10-19T00:44:51;5.00;;;4.00;;
2338;SDS011;1180;51.438;6.978;2023-10-19T00:47:17;4.77;;;4.03;;
2338;SDS011;1180;51.438;6.978;2023-10-19T00:49:48;5.63;;;3.87;;
2338;SDS011;1180;51.438;6.978;2023-10-19T00:52:14;4.70;;;4.30;;
2338;SDS011;1180;51.438;6.978;2023-10-19T00:54:49;3.63;;;3.33;;
2338;SDS011;1180;51.438;6.978;2023-10-19T00:57:18;5.13;;;4.50;;
2338;SDS011;1180;51.438;6.978;2023-10-19T00:59:59;4.43;;;4.03;;
2338;SDS011;1180;51.438;6.978;2023-10-19T01:02:37;6.20;;;4.37;;
2338;SDS011;1180;51.438;6.978;2023-10-19T01:05:11;5.33;;;4.20;;
2338;SDS011;1180;51.438;6.978;2023-10-19T01:07:40;5.20;;;4.53;;
2338;SDS011;1180;51.438;6.978;2023-10-19T01:10:07;5.27;;;4.20;;
2338;SDS011;1180;51.438;6.978;2023-10-19T01:12:36;4.93;;;4.53;;
2338;SDS011;1180;51.438;6.978;2023-10-19T01:17:48;5.20;;;4.67;;
2338;SDS011;1180;51.438;6.978;2023-10-19T01:20:19;5.17;;;4.67;;
2338;SDS011;1180;51.438;6.978;2023-10-19T01:28:08;5.13;;;4.20;;
2338;SDS011;1180;51.438;6.978;2023-10-19T01:30:36;4.83;;;4.43;;
2338;SDS011;1180;51.438;6.978;2023-10-19T01:33:03;5.13;;;4.63;;
2338;SDS011;1180;51.438;6.978;2023-10-19T01:35:33;6.23;;;4.57;;
2338;SDS011;1180;51.438;6.978;2023-10-19T01:38:17;4.37;;;4.00;;
2338;SDS011;1180;51.438;6.978;2023-10-19T01:40:43;5.80;;;4.90;;
2338;SDS011;1180;51.438;6.978;2023-10-19T01:43:17;4.50;;;4.10;;
2338;SDS011;1180;51.438;6.978;2023-10-19T01:45:51;4.63;;;4.23;;
2338;SDS011;1180;51.438;6.978;2023-10-19T01:48:20;4.90;;;4.50;;
2338;SDS011;1180;51.438;6.978;2023-10-19T01:50:52;4.50;;;4.00;;
2338;SDS011;1180;51.438;6.978;2023-10-19T01:53:18;7.00;;;4.00;;
2338;SDS011;1180;51.438;6.978;2023-10-19T01:55:50;5.20;;;4.40;;
2338;SDS011;1180;51.438;6.978;2023-10-19T01:58:23;4.10;;;3.70;;
2338;SDS011;1180;51.438;6.978;2023-10-19T02:00:52;5.40;;;4.03;;
2338;SDS011;1180;51.438;6.978;2023-10-19T02:03:31;4.30;;;4.00;;
2338;SDS011;1180;51.438;6.978;2023-10-19T02:06:01;3.90;;;3.57;;
2338;SDS011;1180;51.438;6.978;2023-10-19T02:08:52;4.30;;;3.90;;
2338;SDS011;1180;51.438;6.978;2023-10-19T02:11:26;4.63;;;4.23;;
2338;SDS011;1180;51.438;6.978;2023-10-19T02:13:53;5.90;;;3.57;;
2338;SDS011;1180;51.438;6.978;2023-10-19T02:16:19;4.40;;;4.00;;
2338;SDS011;1180;51.438;6.978;2023-10-19T02:18:47;4.43;;;4.03;;
2338;SDS011;1180;51.438;6.978;2023-10-19T02:21:14;4.73;;;4.23;;
2338;SDS011;1180;51.438;6.978;2023-10-19T02:23:44;6.20;;;3.80;;
2338;SDS011;1180;51.438;6.978;2023-10-19T02:26:10;4.97;;;4.20;;
2338;SDS011;1180;51.438;6.978;2023-10-19T02:28:39;4.40;;;4.00;;
2338;SDS011;1180;51.438;6.978;2023-10-19T02:31:05;5.40;;;4.20;;
2338;SDS011;1180;51.438;6.978;2023-10-19T02:33:42;4.07;;;3.67;;
2338;SDS011;1180;51.438;6.978;2023-10-19T02:36:14;4.50;;;3.60;;
2338;SDS011;1180;51.438;6.978;2023-10-19T02:38:41;5.30;;;3.30;;
2338;SDS011;1180;51.438;6.978;2023-10-19T02:41:16;3.90;;;3.30;;
2338;SDS011;1180;51.438;6.978;2023-10-19T02:43:46;3.23;;;2.90;;
2338;SDS011;1180;51.438;6.978;2023-10-19T02:46:16;3.27;;;2.80;;
2338;SDS011;1180;51.438;6.978;2023-10-19T02:48:45;2.33;;;2.07;;
2338;SDS011;1180;51.438;6.978;2023-10-19T02:51:15;2.73;;;2.50;;
2338;SDS011;1180;51.438;6.978;2023-10-19T02:53:41;2.27;;;1.70;;
2338;SDS011;1180;51.438;6.978;2023-10-19T02:56:11;2.33;;;2.00;;
2338;SDS011;1180;51.438;6.978;2023-10-19T02:58:41;4.27;;;1.70;;
2338;SDS011;1180;51.438;6.978;2023-10-19T03:01:18;2.90;;;1.80;;
2338;SDS011;1180;51.438;6.978;2023-10-19T03:03:54;2.60;;;1.97;;
2338;SDS011;1180;51.438;6.978;2023-10-19T03:06:29;4.73;;;1.90;;
2338;SDS011;1180;51.438;6.978;2023-10-19T03:08:59;2.00;;;1.80;;
2338;SDS011;1180;51.438;6.978;2023-10-19T03:11:44;1.60;;;1.50;;
2338;SDS011;1180;51.438;6.978;2023-10-19T03:14:10;2.17;;;2.00;;
2338;SDS011;1180;51.438;6.978;2023-10-19T03:16:37;2.27;;;2.07;;
2338;SDS011;1180;51.438;6.978;2023-10-19T03:19:07;11.13;;;1.97;;
2338;SDS011;1180;51.438;6.978;2023-10-19T03:21:33;2.93;;;2.07;;
2338;SDS011;1180;51.438;6.978;2023-10-19T03:24:08;3.60;;;2.10;;
2338;SDS011;1180;51.438;6.978;2023-10-19T03:26:57;2.60;;;2.37;;
2338;SDS011;1180;51.438;6.978;2023-10-19T03:29:25;2.57;;;2.37;;
2338;SDS011;1180;51.438;6.978;2023-10-19T03:32:04;3.07;;;2.80;;
2338;SDS011;1180;51.438;6.978;2023-10-19T03:34:34;3.00;;;2.70;;
2338;SDS011;1180;51.438;6.978;2023-10-19T03:37:01;3.13;;;2.83;;
2338;SDS011;1180;51.438;6.978;2023-10-19T03:39:37;3.70;;;3.03;;
2338;SDS011;1180;51.438;6.978;2023-10-19T03:42:06;3.90;;;3.23;;
2338;SDS011;1180;51.438;6.978;2023-10-19T03:44:33;3.60;;;2.73;;
2338;SDS011;1180;51.438;6.978;2023-10-19T03:47:14;5.10;;;2.90;;
2338;SDS011;1180;51.438;6.978;2023-10-19T03:49:44;2.77;;;2.53;;
2338;SDS011;1180;51.438;6.978;2023-10-19T03:52:12;3.20;;;2.80;;
2338;SDS011;1180;51.438;6.978;2023-10-19T03:54:38;3.50;;;2.67;;
2338;SDS011;1180;51.438;6.978;2023-10-19T03:57:04;2.30;;;2.07;;
2338;SDS011;1180;51.438;6.978;2023-10-19T03:59:50;1.50;;;1.40;;
2338;SDS011;1180;51.438;6.978;2023-10-19T04:02:25;6.67;;;2.97;;
2338;SDS011;1180;51.438;6.978;2023-10-19T04:04:54;4.10;;;2.70;;
2338;SDS011;1180;51.438;6.978;2023-10-19T04:07:22;3.33;;;1.80;;
2338;SDS011;1180;51.438;6.978;2023-10-19T04:09:54;2.13;;;1.93;;
2338;SDS011;1180;51.438;6.978;2023-10-19T04:12:33;4.27;;;2.10;;
2338;SDS011;1180;51.438;6.978;2023-10-19T04:15:06;3.20;;;1.73;;
2338;SDS011;1180;51.438;6.978;2023-10-19T04:17:40;3.37;;;1.70;;
2338;SDS011;1180;51.438;6.978;2023-10-19T04:20:15;1.60;;;1.50;;
2338;SDS011;1180;51.438;6.978;2023-10-19T04:22:42;3.17;;;1.97;;
2338;SDS011;1180;51.438;6.978;2023-10-19T04:25:14;1.80;;;1.70;;
2338;SDS011;1180;51.438;6.978;2023-10-19T04:27:42;5.73;;;2.17;;
2338;SDS011;1180;51.438;6.978;2023-10-19T04:30:08;1.97;;;1.70;;
2338;SDS011;1180;51.438;6.978;2023-10-19T04:32:41;2.43;;;2.00;;
2338;SDS011;1180;51.438;6.978;2023-10-19T04:35:07;2.43;;;1.87;;
2338;SDS011;1180;51.438;6.978;2023-10-19T04:37:35;2.43;;;1.77;;
2338;SDS011;1180;51.438;6.978;2023-10-19T04:40:01;3.00;;;1.77;;
2338;SDS011;1180;51.438;6.978;2023-10-19T04:42:27;3.07;;;1.63;;
2338;SDS011;1180;51.438;6.978;2023-10-19T04:44:56;1.80;;;1.47;;
2338;SDS011;1180;51.438;6.978;2023-10-19T04:47:22;2.27;;;1.40;;
2338;SDS011;1180;51.438;6.978;2023-10-19T04:49:48;2.83;;;1.83;;
2338;SDS011;1180;51.438;6.978;2023-10-19T04:52:14;2.03;;;1.80;;
2338;SDS011;1180;51.438;6.978;2023-10-19T04:54:40;3.13;;;1.20;;
2338;SDS011;1180;51.438;6.978;2023-10-19T04:57:07;2.60;;;1.70;;
2338;SDS011;1180;51.438;6.978;2023-10-19T04:59:33;3.07;;;2.40;;
2338;SDS011;1180;51.438;6.978;2023-10-19T05:01:59;2.00;;;1.70;;
2338;SDS011;1180;51.438;6.978;2023-10-19T05:04:27;8.30;;;3.10;;
2338;SDS011;1180;51.438;6.978;2023-10-19T05:06:54;4.53;;;1.93;;
2338;SDS011;1180;51.438;6.978;2023-10-19T05:09:20;5.13;;;2.13;;
2338;SDS011;1180;51.438;6.978;2023-10-19T05:11:46;2.37;;;2.00;;
2338;SDS011;1180;51.438;6.978;2023-10-19T05:14:13;2.80;;;1.63;;
2338;SDS011;1180;51.438;6.978;2023-10-19T05:16:39;2.07;;;1.70;;
2338;SDS011;1180;51.438;6.978;2023-10-19T05:19:05;2.10;;;1.90;;
2338;SDS011;1180;51.438;6.978;2023-10-19T05:21:31;4.10;;;1.63;;
2338;SDS011;1180;51.438;6.978;2023-10-19T05:23:56;1.70;;;1.60;;
2338;SDS011;1180;51.438;6.978;2023-10-19T05:26:25;2.80;;;2.30;;
2338;SDS011;1180;51.438;6.978;2023-10-19T05:28:52;2.20;;;1.60;;
2338;SDS011;1180;51.438;6.978;2023-10-19T05:31:19;1.47;;;1.30;;
2338;SDS011;1180;51.438;6.978;2023-10-19T05:33:45;1.83;;;1.60;;
2338;SDS011;1180;51.438;6.978;2023-10-19T05:36:14;1.70;;;1.23;;
2338;SDS011;1180;51.438;6.978;2023-10-19T05:38:40;2.30;;;1.80;;
2338;SDS011;1180;51.438;6.978;2023-10-19T05:41:06;5.03;;;1.97;;
2338;SDS011;1180;51.438;6.978;2023-10-19T05:43:33;1.23;;;1.13;;
2338;SDS011;1180;51.438;6.978;2023-10-19T05:45:59;3.77;;;1.57;;
2338;SDS011;1180;51.438;6.978;2023-10-19T05:48:25;3.20;;;1.23;;
2338;SDS011;1180;51.438;6.978;2023-10-19T05:50:51;1.73;;;1.10;;
2338;SDS011;1180;51.438;6.978;2023-10-19T05:53:17;2.83;;;1.40;;
2338;SDS011;1180;51.438;6.978;2023-10-19T05:55:47;3.30;;;1.33;;
2338;SDS011;1180;51.438;6.978;2023-10-19T05:58:14;4.33;;;1.57;;
2338;SDS011;1180;51.438;6.978;2023-10-19T06:00:41;2.60;;;1.40;;
2338;SDS011;1180;51.438;6.978;2023-10-19T06:03:07;2.40;;;1.90;;
2338;SDS011;1180;51.438;6.978;2023-10-19T06:05:33;1.90;;;1.30;;
2338;SDS011;1180;51.438;6.978;2023-10-19T06:07:58;2.00;;;1.60;;
2338;SDS011;1180;51.438;6.978;2023-10-19T06:10:25;1.40;;;1.13;;
2338;SDS011;1180;51.438;6.978;2023-10-19T06:12:52;3.00;;;1.40;;
2338;SDS011;1180;51.438;6.978;2023-10-19T06:15:18;5.00;;;1.50;;
2338;SDS011;1180;51.438;6.978;2023-10-19T06:17:47;1.47;;;1.37;;
2338;SDS011;1180;51.438;6.978;2023-10-19T06:20:14;1.60;;;1.50;;
2338;SDS011;1180;51.438;6.978;2023-10-19T06:22:55;9.30;;;1.97;;
2338;SDS011;1180;51.438;6.978;2023-10-19T06:25:24;2.33;;;1.50;;
2338;SDS011;1180;51.438;6.978;2023-10-19T06:27:50;2.63;;;1.17;;
2338;SDS011;1180;51.438;6.978;2023-10-19T06:30:17;1.30;;;1.20;;
2338;SDS011;1180;51.438;6.978;2023-10-19T06:32:45;3.03;;;1.50;;
2338;SDS011;1180;51.438;6.978;2023-10-19T06:35:12;1.47;;;1.37;;
2338;SDS011;1180;51.438;6.978;2023-10-19T06:37:38;1.30;;;1.20;;
2338;SDS011;1180;51.438;6.978;2023-10-19T06:40:05;1.97;;;1.70;;
2338;SDS011;1180;51.438;6.978;2023-10-19T06:42:31;1.87;;;1.30;;
2338;SDS011;1180;51.438;6.978;2023-10-19T06:44:57;3.83;;;1.77;;
2338;SDS011;1180;51.438;6.978;2023-10-19T06:47:23;2.40;;;1.63;;
2338;SDS011;1180;51.438;6.978;2023-10-19T06:49:48;5.20;;;1.80;;
2338;SDS011;1180;51.438;6.978;2023-10-19T06:52:15;5.37;;;1.30;;
2338;SDS011;1180;51.438;6.978;2023-10-19T06:54:40;1.83;;;1.30;;
2338;SDS011;1180;51.438;6.978;2023-10-19T06:57:07;1.90;;;1.70;;
2338;SDS011;1180;51.438;6.978;2023-10-19T06:59:33;5.13;;;1.77;;
2338;SDS011;1180;51.438;6.978;2023-10-19T07:02:01;2.03;;;1.70;;
2338;SDS011;1180;51.438;6.978;2023-10-19T07:04:33;1.70;;;1.50;;
2338;SDS011;1180;51.438;6.978;2023-10-19T07:06:59;2.50;;;1.53;;
2338;SDS011;1180;51.438;6.978;2023-10-19T07:09:25;7.50;;;1.43;;
2338;SDS011;1180;51.438;6.978;2023-10-19T07:11:51;2.10;;;1.60;;
2338;SDS011;1180;51.438;6.978;2023-10-19T07:14:22;2.37;;;1.67;;
2338;SDS011;1180;51.438;6.978;2023-10-19T07:16:48;3.40;;;1.87;;
2338;SDS011;1180;51.438;6.978;2023-10-19T07:19:15;3.70;;;1.90;;
2338;SDS011;1180;51.438;6.978;2023-10-19T07:21:41;2.63;;;1.47;;
2338;SDS011;1180;51.438;6.978;2023-10-19T07:24:08;1.80;;;1.70;;
2338;SDS011;1180;51.438;6.978;2023-10-19T07:26:35;2.80;;;2.10;;
2338;SDS011;1180;51.438;6.978;2023-10-19T07:29:08;2.37;;;1.80;;
2338;SDS011;1180;51.438;6.978;2023-10-19T07:31:35;2.30;;;1.87;;
2338;SDS011;1180;51.438;6.978;2023-10-19T07:34:01;2.47;;;1.40;;
2338;SDS011;1180;51.438;6.978;2023-10-19T07:36:26;2.03;;;1.60;;
2338;SDS011;1180;51.438;6.978;2023-10-19T07:38:53;3.13;;;2.27;;
2338;SDS011;1180;51.438;6.978;2023-10-19T07:41:20;3.23;;;1.80;;
2338;SDS011;1180;51.438;6.978;2023-10-19T07:43:46;2.97;;;1.83;;
2338;SDS011;1180;51.438;6.978;2023-10-19T07:46:12;3.63;;;2.33;;
2338;SDS011;1180;51.438;6.978;2023-10-19T07:48:37;3.17;;;1.90;;
2338;SDS011;1180;51.438;6.978;2023-10-19T07:51:03;2.00;;;1.63;;
2338;SDS011;1180;51.438;6.978;2023-10-19T07:53:29;2.70;;;2.10;;
2338;SDS011;1180;51.438;6.978;2023-10-19T07:55:55;2.50;;;2.20;;
2338;SDS011;1180;51.438;6.978;2023-10-19T07:58:22;2.70;;;1.90;;
2338;SDS011;1180;51.438;6.978;2023-10-19T08:00:47;3.03;;;2.00;;
2338;SDS011;1180;51.438;6.978;2023-10-19T08:03:12;3.97;;;2.03;;
2338;SDS011;1180;51.438;6.978;2023-10-19T08:05:41;2.40;;;1.63;;
2338;SDS011;1180;51.438;6.978;2023-10-19T08:08:06;2.27;;;2.00;;
2338;SDS011;1180;51.438;6.978;2023-10-19T08:10:32;2.77;;;1.87;;
2338;SDS011;1180;51.438;6.978;2023-10-19T08:12:59;3.67;;;2.03;;
2338;SDS011;1180;51.438;6.978;2023-10-19T08:15:24;2.37;;;2.17;;
2338;SDS011;1180;51.438;6.978;2023-10-19T08:17:51;3.67;;;1.70;;
2338;SDS011;1180;51.438;6.978;2023-10-19T08:20:18;2.83;;;1.70;;
2338;SDS011;1180;51.438;6.978;2023-10-19T08:22:55;2.23;;;1.50;;
2338;SDS011;1180;51.438;6.978;2023-10-19T08:25:24;2.60;;;2.00;;
2338;SDS011;1180;51.438;6.978;2023-10-19T08:27:52;2.33;;;1.63;;
2338;SDS011;1180;51.438;6.978;2023-10-19T08:30:21;2.77;;;1.50;;
2338;SDS011;1180;51.438;6.978;2023-10-19T08:32:47;2.43;;;1.67;;
2338;SDS011;1180;51.438;6.978;2023-10-19T08:35:13;3.90;;;2.47;;
2338;SDS011;1180;51.438;6.978;2023-10-19T08:37:40;2.60;;;1.77;;
2338;SDS011;1180;51.438;6.978;2023-10-19T08:40:06;2.60;;;2.40;;
2338;SDS011;1180;51.438;6.978;2023-10-19T08:42:39;4.67;;;1.80;;
2338;SDS011;1180;51.438;6.978;2023-10-19T08:45:04;3.73;;;1.87;;
2338;SDS011;1180;51.438;6.978;2023-10-19T08:47:33;2.03;;;1.70;;
2338;SDS011;1180;51.438;6.978;2023-10-19T08:50:01;3.00;;;2.07;;
2338;SDS011;1180;51.438;6.978;2023-10-19T08:52:28;3.20;;;2.13;;
2338;SDS011;1180;51.438;6.978;2023-10-19T08:54:54;2.47;;;1.37;;
2338;SDS011;1180;51.438;6.978;2023-10-19T08:57:19;2.70;;;1.50;;
2338;SDS011;1180;51.438;6.978;2023-10-19T08:59:45;3.27;;;1.70;;
2338;SDS011;1180;51.438;6.978;2023-10-19T09:02:12;1.43;;;1.33;;
2338;SDS011;1180;51.438;6.978;2023-10-19T09:04:41;3.93;;;1.70;;
2338;SDS011;1180;51.438;6.978;2023-10-19T09:07:08;2.33;;;1.90;;
2338;SDS011;1180;51.438;6.978;2023-10-19T09:09:35;3.80;;;1.63;;
2338;SDS011;1180;51.438;6.978;2023-10-19T09:12:04;1.67;;;1.53;;
2338;SDS011;1180;51.438;6.978;2023-10-19T09:14:31;1.97;;;1.77;;
2338;SDS011;1180;51.438;6.978;2023-10-19T09:17:08;2.27;;;1.80;;
2338;SDS011;1180;51.438;6.978;2023-10-19T09:19:36;2.20;;;1.70;;
2338;SDS011;1180;51.438;6.978;2023-10-19T09:22:01;3.30;;;1.83;;
2338;SDS011;1180;51.438;6.978;2023-10-19T09:24:33;2.77;;;1.77;;
2338;SDS011;1180;51.438;6.978;2023-10-19T09:27:02;3.80;;;1.80;;
2338;SDS011;1180;51.438;6.978;2023-10-19T09:29:28;3.50;;;1.60;;
2338;SDS011;1180;51.438;6.978;2023-10-19T09:31:54;5.90;;;1.50;;
2338;SDS011;1180;51.438;6.978;2023-10-19T09:34:23;2.30;;;1.43;;
2338;SDS011;1180;51.438;6.978;2023-10-19T09:36:57;5.20;;;2.10;;
2338;SDS011;1180;51.438;6.978;2023-10-19T09:39:25;2.33;;;1.50;;
2338;SDS011;1180;51.438;6.978;2023-10-19T09:41:59;3.37;;;1.60;;
2338;SDS011;1180;51.438;6.978;2023-10-19T09:44:28;2.00;;;1.30;;
2338;SDS011;1180;51.438;6.978;2023-10-19T09:46:57;2.40;;;1.53;;
2338;SDS011;1180;51.438;6.978;2023-10-19T09:49:25;3.20;;;1.90;;
2338;SDS011;1180;51.438;6.978;2023-10-19T09:51:53;3.00;;;1.40;;
2338;SDS011;1180;51.438;6.978;2023-10-19T09:54:30;4.50;;;1.90;;
2338;SDS011;1180;51.438;6.978;2023-10-19T09:57:03;2.00;;;1.80;;
2338;SDS011;1180;51.438;6.978;2023-10-19T09:59:41;2.00;;;1.20;;
2338;SDS011;1180;51.438;6.978;2023-10-19T10:02:15;3.77;;;2.23;;
2338;SDS011;1180;51.438;6.978;2023-10-19T10:04:43;3.87;;;1.90;;
2338;SDS011;1180;51.438;6.978;2023-10-19T10:07:12;1.70;;;1.50;;
2338;SDS011;1180;51.438;6.978;2023-10-19T10:09:42;2.80;;;1.80;;
2338;SDS011;1180;51.438;6.978;2023-10-19T10:14:52;3.23;;;1.80;;
2338;SDS011;1180;51.438;6.978;2023-10-19T10:17:21;7.33;;;2.27;;
2338;SDS011;1180;51.438;6.978;2023-10-19T10:19:48;3.83;;;2.17;;
2338;SDS011;1180;51.438;6.978;2023-10-19T10:22:13;4.20;;;1.97;;
2338;SDS011;1180;51.438;6.978;2023-10-19T10:24:42;4.80;;;1.80;;
2338;SDS011;1180;51.438;6.978;2023-10-19T10:27:07;5.47;;;2.30;;
2338;SDS011;1180;51.438;6.978;2023-10-19T10:29:34;1.70;;;1.50;;
2338;SDS011;1180;51.438;6.978;2023-10-19T10:32:00;3.30;;;1.40;;
2338;SDS011;1180;51.438;6.978;2023-10-19T10:37:08;6.87;;;2.10;;
2338;SDS011;1180;51.438;6.978;2023-10-19T10:39:36;5.43;;;2.07;;
2338;SDS011;1180;51.438;6.978;2023-10-19T10:42:05;2.67;;;2.20;;
2338;SDS011;1180;51.438;6.978;2023-10-19T10:44:50;6.33;;;2.23;;
2338;SDS011;1180;51.438;6.978;2023-10-19T10:47:21;7.33;;;1.70;;
2338;SDS011;1180;51.438;6.978;2023-10-19T10:49:50;5.37;;;1.43;;
2338;SDS011;1180;51.438;6.978;2023-10-19T10:54:50;2.93;;;1.73;;
2338;SDS011;1180;51.438;6.978;2023-10-19T10:57:16;3.20;;;1.50;;
2338;SDS011;1180;51.438;6.978;2023-10-19T10:59:43;5.33;;;1.70;;
2338;SDS011;1180;51.438;6.978;2023-10-19T11:02:18;4.37;;;2.57;;
2338;SDS011;1180;51.438;6.978;2023-10-19T11:04:45;5.03;;;1.93;;
2338;SDS011;1180;51.438;6.978;2023-10-19T11:07:18;3.77;;;1.90;;
2338;SDS011;1180;51.438;6.978;2023-10-19T11:09:47;2.83;;;1.83;;
2338;SDS011;1180;51.438;6.978;2023-10-19T11:12:13;2.60;;;1.93;;
2338;SDS011;1180;51.438;6.978;2023-10-19T11:17:20;4.37;;;1.83;;
2338;SDS011;1180;51.438;6.978;2023-10-19T11:19:53;2.70;;;1.53;;
2338;SDS011;1180;51.438;6.978;2023-10-19T11:22:21;4.20;;;1.83;;
2338;SDS011;1180;51.438;6.978;2023-10-19T11:24:47;4.17;;;1.97;;
2338;SDS011;1180;51.438;6.978;2023-10-19T11:27:21;5.80;;;1.87;;
2338;SDS011;1180;51.438;6.978;2023-10-19T11:29:58;5.53;;;2.47;;
2338;SDS011;1180;51.438;6.978;2023-10-19T11:32:25;4.40;;;2.30;;
2338;SDS011;1180;51.438;6.978;2023-10-19T11:34:52;4.17;;;1.80;;
2338;SDS011;1180;51.438;6.978;2023-10-19T11:37:21;6.43;;;2.73;;
2338;SDS011;1180;51.438;6.978;2023-10-19T11:39:47;5.70;;;2.47;;
2338;SDS011;1180;51.438;6.978;2023-10-19T11:42:15;3.40;;;2.00;;
2338;SDS011;1180;51.438;6.978;2023-10-19T11:44:43;6.07;;;1.80;;
2338;SDS011;1180;51.438;6.978;2023-10-19T11:47:10;4.27;;;2.03;;
2338;SDS011;1180;51.438;6.978;2023-10-19T11:49:36;3.27;;;1.90;;
2338;SDS011;1180;51.438;6.978;2023-10-19T11:52:06;3.23;;;2.00;;
2338;SDS011;1180;51.438;6.978;2023-10-19T11:54:35;7.93;;;2.33;;
2338;SDS011;1180;51.438;6.978;2023-10-19T11:57:01;4.80;;;1.47;;
2338;SDS011;1180;51.438;6.978;2023-10-19T11:59:27;3.10;;;1.83;;
2338;SDS011;1180;51.438;6.978;2023-10-19T12:01:54;4.40;;;1.70;;
2338;SDS011;1180;51.438;6.978;2023-10-19T12:04:20;6.07;;;2.17;;
2338;SDS011;1180;51.438;6.978;2023-10-19T12:06:45;4.17;;;2.83;;
2338;SDS011;1180;51.438;6.978;2023-10-19T12:09:11;7.27;;;1.97;;
2338;SDS011;1180;51.438;6.978;2023-10-19T12:11:40;2.60;;;2.03;;
2338;SDS011;1180;51.438;6.978;2023-10-19T12:14:06;5.50;;;2.10;;
2338;SDS011;1180;51.438;6.978;2023-10-19T12:16:36;4.80;;;1.27;;
2338;SDS011;1180;51.438;6.978;2023-10-19T12:19:04;4.30;;;2.07;;
2338;SDS011;1180;51.438;6.978;2023-10-19T12:21:31;5.90;;;2.30;;
2338;SDS011;1180;51.438;6.978;2023-10-19T12:23:58;4.43;;;1.93;;
2338;SDS011;1180;51.438;6.978;2023-10-19T12:26:26;4.63;;;1.60;;
2338;SDS011;1180;51.438;6.978;2023-10-19T12:28:54;6.20;;;1.47;;
2338;SDS011;1180;51.438;6.978;2023-10-19T12:31:20;6.90;;;1.90;;
2338;SDS011;1180;51.438;6.978;2023-10-19T12:33:48;5.10;;;2.00;;
2338;SDS011;1180;51.438;6.978;2023-10-19T12:36:14;4.40;;;1.87;;
2338;SDS011;1180;51.438;6.978;2023-10-19T12:38:55;5.43;;;2.10;;
2338;SDS011;1180;51.438;6.978;2023-10-19T12:41:21;2.67;;;1.70;;
2338;SDS011;1180;51.438;6.978;2023-10-19T12:43:47;5.77;;;2.03;;
2338;SDS011;1180;51.438;6.978;2023-10-19T12:46:13;5.17;;;2.27;;
2338;SDS011;1180;51.438;6.978;2023-10-19T12:48:41;5.50;;;1.80;;
2338;SDS011;1180;51.438;6.978;2023-10-19T12:51:08;3.53;;;1.87;;
2338;SDS011;1180;51.438;6.978;2023-10-19T12:53:37;4.83;;;1.80;;
2338;SDS011;1180;51.438;6.978;2023-10-19T12:56:04;3.43;;;1.83;;
2338;SDS011;1180;51.438;6.978;2023-10-19T12:58:31;4.60;;;1.50;;
2338;SDS011;1180;51.438;6.978;2023-10-19T13:00:57;5.30;;;1.87;;
2338;SDS011;1180;51.438;6.978;2023-10-19T13:03:23;11.87;;;2.20;;
2338;SDS011;1180;51.438;6.978;2023-10-19T13:05:56;5.67;;;2.53;;
2338;SDS011;1180;51.438;6.978;2023-10-19T13:08:23;3.73;;;1.47;;
2338;SDS011;1180;51.438;6.978;2023-10-19T13:10:52;2.90;;;1.77;;
2338;SDS011;1180;51.438;6.978;2023-10-19T13:13:19;4.47;;;2.10;;
2338;SDS011;1180;51.438;6.978;2023-10-19T13:15:47;1.90;;;1.67;;
2338;SDS011;1180;51.438;6.978;2023-10-19T13:18:13;3.50;;;2.47;;
2338;SDS011;1180;51.438;6.978;2023-10-19T13:20:45;3.50;;;1.80;;
2338;SDS011;1180;51.438;6.978;2023-10-19T13:23:13;3.57;;;1.70;;
2338;SDS011;1180;51.438;6.978;2023-10-19T13:25:48;6.57;;;1.73;;
2338;SDS011;1180;51.438;6.978;2023-10-19T13:28:33;5.93;;;2.00;;
2338;SDS011;1180;51.438;6.978;2023-10-19T13:31:00;6.83;;;2.30;;
2338;SDS011;1180;51.438;6.978;2023-10-19T13:33:25;4.03;;;1.77;;
2338;SDS011;1180;51.438;6.978;2023-10-19T13:35:51;3.37;;;2.17;;
2338;SDS011;1180;51.438;6.978;2023-10-19T13:38:18;5.37;;;2.17;;
2338;SDS011;1180;51.438;6.978;2023-10-19T13:40:47;4.63;;;1.97;;
2338;SDS011;1180;51.438;6.978;2023-10-19T13:43:15;6.33;;;1.73;;
2338;SDS011;1180;51.438;6.978;2023-10-19T13:45:43;8.30;;;1.90;;
2338;SDS011;1180;51.438;6.978;2023-10-19T13:48:11;3.67;;;1.87;;
2338;SDS011;1180;51.438;6.978;2023-10-19T13:50:41;6.17;;;2.20;;
2338;SDS011;1180;51.438;6.978;2023-10-19T13:53:13;4.80;;;1.97;;
2338;SDS011;1180;51.438;6.978;2023-10-19T13:55:39;4.27;;;2.00;;
2338;SDS011;1180;51.438;6.978;2023-10-19T13:58:05;6.93;;;1.93;;
2338;SDS011;1180;51.438;6.978;2023-10-19T14:00:34;3.43;;;2.20;;
2338;SDS011;1180;51.438;6.978;2023-10-19T14:03:00;5.43;;;1.83;;
2338;SDS011;1180;51.438;6.978;2023-10-19T14:05:27;3.93;;;1.90;;
2338;SDS011;1180;51.438;6.978;2023-10-19T14:07:55;3.00;;;1.60;;
2338;SDS011;1180;51.438;6.978;2023-10-19T14:10:23;5.77;;;2.03;;
2338;SDS011;1180;51.438;6.978;2023-10-19T14:12:49;6.27;;;2.73;;
2338;SDS011;1180;51.438;6.978;2023-10-19T14:15:16;3.37;;;1.97;;
2338;SDS011;1180;51.438;6.978;2023-10-19T14:17:47;3.80;;;1.50;;
2338;SDS011;1180;51.438;6.978;2023-10-19T14:20:16;4.67;;;2.73;;
2338;SDS011;1180;51.438;6.978;2023-10-19T14:22:48;3.60;;;1.63;;
2338;SDS011;1180;51.438;6.978;2023-10-19T14:25:15;5.17;;;1.83;;
2338;SDS011;1180;51.438;6.978;2023-10-19T14:27:44;7.77;;;2.23;;
2338;SDS011;1180;51.438;6.978;2023-10-19T14:30:16;3.30;;;1.80;;
2338;SDS011;1180;51.438;6.978;2023-10-19T14:32:43;2.83;;;1.50;;
2338;SDS011;1180;51.438;6.978;2023-10-19T14:35:13;4.43;;;2.47;;
2338;SDS011;1180;51.438;6.978;2023-10-19T14:37:41;5.47;;;2.37;;
2338;SDS011;1180;51.438;6.978;2023-10-19T14:40:18;3.67;;;1.73;;
2338;SDS011;1180;51.438;6.978;2023-10-19T14:42:46;4.00;;;1.73;;
2338;SDS011;1180;51.438;6.978;2023-10-19T14:45:13;5.67;;;2.10;;
2338;SDS011;1180;51.438;6.978;2023-10-19T14:47:41;10.27;;;2.13;;
2338;SDS011;1180;51.438;6.978;2023-10-19T14:50:12;6.93;;;2.40;;
2338;SDS011;1180;51.438;6.978;2023-10-19T14:52:42;4.77;;;1.90;;
2338;SDS011;1180;51.438;6.978;2023-10-19T14:55:08;1.60;;;1.20;;
2338;SDS011;1180;51.438;6.978;2023-10-19T14:57:35;4.40;;;1.47;;
2338;SDS011;1180;51.438;6.978;2023-10-19T15:00:05;6.37;;;2.60;;
2338;SDS011;1180;51.438;6.978;2023-10-19T15:02:41;4.47;;;2.30;;
2338;SDS011;1180;51.438;6.978;2023-10-19T15:05:16;2.77;;;1.80;;
2338;SDS011;1180;51.438;6.978;2023-10-19T15:07:43;3.13;;;1.77;;
2338;SDS011;1180;51.438;6.978;2023-10-19T15:10:10;2.53;;;1.73;;
2338;SDS011;1180;51.438;6.978;2023-10-19T15:12:40;3.37;;;1.93;;
2338;SDS011;1180;51.438;6.978;2023-10-19T15:15:06;6.83;;;2.07;;
2338;SDS011;1180;51.438;6.978;2023-10-19T15:17:34;3.30;;;1.93;;
2338;SDS011;1180;51.438;6.978;2023-10-19T15:20:03;4.13;;;1.90;;
2338;SDS011;1180;51.438;6.978;2023-10-19T15:22:30;2.40;;;1.63;;
2338;SDS011;1180;51.438;6.978;2023-10-19T15:24:57;3.73;;;1.90;;
2338;SDS011;1180;51.438;6.978;2023-10-19T15:27:23;7.13;;;2.40;;
2338;SDS011;1180;51.438;6.978;2023-10-19T15:29:49;5.57;;;2.40;;
2338;SDS011;1180;51.438;6.978;2023-10-19T15:32:15;5.50;;;1.67;;
2338;SDS011;1180;51.438;6.978;2023-10-19T15:34:41;7.83;;;2.30;;
2338;SDS011;1180;51.438;6.978;2023-10-19T15:37:07;5.03;;;4.33;;
2338;SDS011;1180;51.438;6.978;2023-10-19T15:39:33;3.33;;;2.33;;
2338;SDS011;1180;51.438;6.978;2023-10-19T15:41:59;3.30;;;1.90;;
2338;SDS011;1180;51.438;6.978;2023-10-19T15:44:25;3.60;;;1.60;;